Time;durP1;ratioP1;P1;durP2;ratioP2;P2;SDS_P1;SDS_P2;PMS_P1;PMS_P2;Temp;Humidity;BMP_temperature;BMP_pressure;BME280_temperature;BME280_humidity;BME280_pressure;Samples;Min_cycle;Max_cycle;Signal;HPM_P1;HPM_P2
2024/01/11 00:02:51;;;;;;;;;151.00;129.75;;;;;-2.00;100.00;99937.41;5910709;29;96424;-53
2024/01/11 00:05:54;;;;;;;;;144.20;125.00;;;;;-1.98;100.00;99932.03;5899683;29;96434;-53
2024/01/11 00:08:57;;;;;;;;;148.60;125.60;;;;;-2.24;100.00;99887.28;5900117;29;97997;-53
2024/01/11 00:12:02;;;;;;;;;153.80;125.40;;;;;-2.04;100.00;99906.91;5906230;29;96823;-54
2024/01/11 00:15:06;;;;;;;;;168.40;147.00;;;;;-1.91;100.00;99920.03;5904009;29;96395;-54
2024/01/11 00:18:09;;;;;;;;;147.80;130.20;;;;;-1.88;100.00;99925.91;5908396;29;96899;-54
2024/01/11 00:21:12;;;;;;;;;149.40;130.00;;;;;-1.87;100.00;99934.69;5901350;29;96564;-53
2024/01/11 00:24:15;;;;;;;;;159.20;130.40;;;;;-1.86;100.00;99920.53;5909931;29;96590;-53
2024/01/11 00:27:20;;;;;;;;;149.25;123.25;;;;;-1.92;100.00;99903.34;5908330;29;96327;-54
2024/01/11 00:30:23;;;;;;;;;150.00;128.60;;;;;-1.83;100.00;99909.72;5910393;29;96256;-53
2024/01/11 00:33:26;;;;;;;;;156.00;129.00;;;;;-1.82;100.00;99906.09;5910207;29;96334;-53
2024/01/11 00:36:30;;;;;;;;;163.00;135.75;;;;;-1.84;100.00;99897.44;5890427;29;96937;-54
2024/01/11 00:39:33;;;;;;;;;152.60;129.80;;;;;-1.85;100.00;99893.94;5905342;29;97481;-53
2024/01/11 00:42:37;;;;;;;;;153.00;131.25;;;;;-1.89;100.00;99887.22;5908951;29;97039;-53
2024/01/11 00:45:41;;;;;;;;;163.00;134.20;;;;;-1.90;100.00;99893.47;5910152;29;96676;-53
2024/01/11 00:48:44;;;;;;;;;155.80;131.80;;;;;-1.92;100.00;99894.56;5910544;29;96466;-53
2024/01/11 00:51:47;;;;;;;;;155.00;131.00;;;;;-1.97;100.00;99881.72;5912475;29;96425;-53
2024/01/11 00:54:50;;;;;;;;;170.20;135.80;;;;;-2.07;100.00;99878.09;5891491;29;96392;-53
2024/01/11 00:57:55;;;;;;;;;162.00;139.00;;;;;-2.17;100.00;99882.38;5893043;29;96404;-53
2024/01/11 01:00:58;;;;;;;;;155.00;132.00;;;;;-2.27;100.00;99876.97;5908402;29;97157;-53
2024/01/11 01:04:01;;;;;;;;;156.00;132.80;;;;;-2.37;100.00;99870.69;5902752;29;96466;-54
2024/01/11 01:07:05;;;;;;;;;156.00;130.40;;;;;-2.49;100.00;99878.72;5899560;29;96473;-53
2024/01/11 01:10:09;;;;;;;;;149.80;127.00;;;;;-2.55;100.00;99872.09;5887686;29;96400;-54
2024/01/11 01:13:13;;;;;;;;;155.40;129.40;;;;;-2.53;100.00;99872.78;5905568;29;97234;-53
2024/01/11 01:16:17;;;;;;;;;151.00;134.00;;;;;-2.49;100.00;99887.44;5901406;29;96315;-53
2024/01/11 01:19:20;;;;;;;;;155.80;131.00;;;;;-2.45;100.00;99883.63;5908825;29;97432;-53
2024/01/11 01:22:24;;;;;;;;;161.00;131.00;;;;;-2.45;100.00;99873.06;5910043;29;97113;-53
2024/01/11 01:25:27;;;;;;;;;149.60;129.00;;;;;-2.43;100.00;99867.66;5897203;29;96359;-54
2024/01/11 01:28:32;;;;;;;;;151.00;126.60;;;;;-2.38;100.00;99868.16;5898452;29;96535;-54
2024/01/11 01:31:37;;;;;;;;;151.40;125.80;;;;;-2.35;100.00;99862.66;5911139;29;96515;-53
2024/01/11 01:34:40;;;;;;;;;145.00;124.60;;;;;-2.29;100.00;99864.81;5910005;29;96378;-54
2024/01/11 01:37:44;;;;;;;;;140.80;120.00;;;;;-2.25;100.00;99861.81;5908715;29;96429;-53
2024/01/11 01:40:47;;;;;;;;;137.20;118.20;;;;;-2.21;100.00;99862.44;5907527;29;96665;-53
2024/01/11 01:43:52;;;;;;;;;142.20;117.00;;;;;-2.17;100.00;99863.91;5898300;29;96402;-53
2024/01/11 01:46:56;;;;;;;;;136.40;117.00;;;;;-2.13;100.00;99854.78;5909609;29;96608;-53
2024/01/11 01:49:59;;;;;;;;;131.40;111.60;;;;;-2.12;100.00;99852.97;5910570;29;96264;-54
2024/01/11 01:53:02;;;;;;;;;125.00;108.00;;;;;-2.08;100.00;99854.41;5908282;29;96679;-53
2024/01/11 01:56:08;;;;;;;;;125.50;101.50;;;;;-2.05;100.00;99857.66;5910030;29;96413;-54
2024/01/11 01:59:13;;;;;;;;;115.40;101.00;;;;;-2.10;100.00;99853.72;5909835;29;96329;-53
2024/01/11 02:02:17;;;;;;;;;111.00;94.40;;;;;-2.09;100.00;99856.22;5916391;29;96575;-55
2024/01/11 02:05:23;;;;;;;;;103.80;88.60;;;;;-2.08;100.00;99852.63;5918041;23;96489;-61
2024/01/11 02:08:28;;;;;;;;;105.25;91.50;;;;;-1.98;100.00;99848.31;5905720;29;96574;-61
2024/01/11 02:11:31;;;;;;;;;99.00;85.40;;;;;-1.94;100.00;99849.75;5905097;29;96478;-60
2024/01/11 02:14:38;;;;;;;;;100.40;83.20;;;;;-1.91;100.00;99846.03;5904833;29;96317;-60
2024/01/11 02:17:42;;;;;;;;;100.80;83.60;;;;;-2.07;100.00;99829.69;5914754;29;96310;-61
2024/01/11 02:20:45;;;;;;;;;94.00;79.40;;;;;-2.01;100.00;99837.97;5882112;29;97799;-61
2024/01/11 02:24:00;;;;;;;;;97.40;81.40;;;;;-2.14;100.00;99812.59;5872419;29;98417;-61
2024/01/11 02:27:05;;;;;;;;;94.75;80.25;;;;;-2.03;100.00;99828.47;5896236;29;96525;-61
2024/01/11 02:30:10;;;;;;;;;92.25;80.50;;;;;-1.95;100.00;99839.28;5901414;29;96346;-61
2024/01/11 02:33:15;;;;;;;;;97.20;83.00;;;;;-1.96;100.00;99838.47;5902052;29;96844;-61
2024/01/11 02:36:20;;;;;;;;;105.80;91.20;;;;;-1.96;100.00;99830.53;5900546;29;96478;-61
2024/01/11 02:39:26;;;;;;;;;108.40;91.40;;;;;-2.02;100.00;99814.31;5896481;29;96586;-61
2024/01/11 02:42:29;;;;;;;;;110.60;92.40;;;;;-2.04;100.00;99819.72;5883496;29;96500;-61
2024/01/11 02:45:32;;;;;;;;;120.20;98.80;;;;;-2.00;100.00;99818.50;5903897;29;96564;-63
2024/01/11 02:48:35;;;;;;;;;119.20;101.60;;;;;-2.03;100.00;99817.91;5903655;29;98428;-61
2024/01/11 02:51:39;;;;;;;;;121.75;105.50;;;;;-2.03;100.00;99825.84;5904916;29;96764;-62
2024/01/11 02:54:44;;;;;;;;;128.25;109.25;;;;;-2.09;100.00;99831.59;5904743;29;96613;-61
2024/01/11 02:57:47;;;;;;;;;129.00;111.50;;;;;-2.10;100.00;99829.94;5897348;29;96927;-61
2024/01/11 03:00:50;;;;;;;;;139.00;112.20;;;;;-2.28;100.00;99816.31;5886703;29;96357;-62
2024/01/11 03:03:55;;;;;;;;;155.20;137.20;;;;;-2.22;100.00;99829.06;5894337;29;98522;-61
2024/01/11 03:06:58;;;;;;;;;141.20;115.60;;;;;-2.25;100.00;99832.75;5901182;29;96357;-61
2024/01/11 03:10:03;;;;;;;;;137.60;116.60;;;;;-2.33;100.00;99834.31;5888918;29;96421;-61
2024/01/11 03:13:06;;;;;;;;;134.80;117.00;;;;;-2.41;100.00;99829.63;5886398;29;96459;-60
2024/01/11 03:16:10;;;;;;;;;134.20;114.80;;;;;-2.69;100.00;99796.53;5902952;29;98415;-60
2024/01/11 03:19:13;;;;;;;;;136.75;115.00;;;;;-2.56;100.00;99822.88;5905628;29;96534;-60
2024/01/11 03:22:16;;;;;;;;;131.40;114.20;;;;;-2.68;100.00;99818.50;5904607;29;97053;-60
2024/01/11 03:25:21;;;;;;;;;129.67;109.33;;;;;-2.78;100.00;99810.44;5906939;29;97221;-60
2024/01/11 03:28:24;;;;;;;;;127.80;112.60;;;;;-2.84;100.00;99812.72;5899911;29;96543;-60
2024/01/11 03:31:27;;;;;;;;;117.25;100.50;;;;;-2.78;100.00;99805.16;5930261;29;96345;-60
2024/01/11 03:34:30;;;;;;;;;123.75;103.00;;;;;-2.95;100.00;99813.50;5914351;29;97119;-61
2024/01/11 03:37:34;;;;;;;;;117.20;99.00;;;;;-2.94;100.00;99817.84;5907034;29;99431;-60
2024/01/11 03:40:38;;;;;;;;;112.80;97.00;;;;;-2.96;100.00;99797.78;5906349;29;98502;-60
2024/01/11 03:43:41;;;;;;;;;121.00;97.40;;;;;-3.00;100.00;99791.06;5916657;29;96515;-61
2024/01/11 03:46:44;;;;;;;;;117.20;97.00;;;;;-2.92;100.00;99781.59;5915255;29;96310;-60
2024/01/11 03:49:48;;;;;;;;;107.80;95.00;;;;;-3.02;100.00;99783.25;5900627;29;97166;-60
2024/01/11 03:52:51;;;;;;;;;107.20;91.80;;;;;-2.91;100.00;99796.50;5914200;29;96778;-59
2024/01/11 03:55:55;;;;;;;;;104.60;94.40;;;;;-2.84;100.00;99791.59;5899213;29;96649;-59
2024/01/11 03:58:58;;;;;;;;;102.60;92.20;;;;;-2.81;100.00;99783.44;5913683;29;96385;-59
2024/01/11 04:02:02;;;;;;;;;104.75;90.50;;;;;-2.77;100.00;99791.00;5916048;29;96381;-59
2024/01/11 04:05:06;;;;;;;;;109.00;96.60;;;;;-2.75;100.00;99797.03;5909872;29;96287;-59
2024/01/11 04:08:09;;;;;;;;;106.60;93.40;;;;;-2.81;100.00;99801.91;5894342;29;97681;-59
2024/01/11 04:11:14;;;;;;;;;104.00;92.80;;;;;-2.78;100.00;99793.75;5922558;29;96351;-59
2024/01/11 04:14:17;;;;;;;;;110.67;95.00;;;;;-2.87;100.00;99790.03;5914143;29;96322;-60
2024/01/11 04:17:20;;;;;;;;;118.40;103.80;;;;;-2.85;100.00;99795.19;5914462;29;96387;-61
2024/01/11 04:20:24;;;;;;;;;117.25;98.25;;;;;-3.34;100.00;99727.63;5914626;29;96399;-59
2024/01/11 04:23:27;;;;;;;;;108.40;99.00;;;;;-2.93;100.00;99785.19;5912866;29;96556;-60
2024/01/11 04:26:32;;;;;;;;;122.25;102.75;;;;;-2.89;100.00;99784.03;5907967;29;98456;-59
2024/01/11 04:29:35;;;;;;;;;117.00;99.50;;;;;-2.87;100.00;99792.66;5912812;29;98750;-60
2024/01/11 04:32:38;;;;;;;;;123.00;100.00;;;;;-2.91;100.00;99795.66;5911213;29;96716;-59
2024/01/11 04:35:41;;;;;;;;;124.20;102.60;;;;;-2.88;100.00;99790.97;5902911;29;96480;-59
2024/01/11 04:38:45;;;;;;;;;112.25;95.00;;;;;-2.96;100.00;99781.94;5927384;29;96332;-62
2024/01/11 04:41:50;;;;;;;;;115.80;95.20;;;;;-2.88;100.00;99776.97;5908831;29;96954;-60
2024/01/11 04:44:53;;;;;;;;;115.00;94.60;;;;;-2.89;100.00;99770.00;5894243;29;96506;-59
2024/01/11 04:47:56;;;;;;;;;117.50;100.50;;;;;-2.93;100.00;99761.44;5911049;29;96633;-59
2024/01/11 04:50:59;;;;;;;;;112.50;98.00;;;;;-2.91;100.00;99749.00;5908848;29;97200;-62
2024/01/11 04:54:03;;;;;;;;;115.33;98.67;;;;;-2.88;100.00;99761.94;5897323;29;96666;-59
2024/01/11 04:57:07;;;;;;;;;119.60;102.00;;;;;-2.83;100.00;99751.88;5902570;29;96879;-60
2024/01/11 05:00:11;;;;;;;;;113.40;98.20;;;;;-2.81;100.00;99755.25;5916574;29;99154;-62
2024/01/11 05:03:14;;;;;;;;;114.40;100.80;;;;;-2.79;100.00;99750.72;5897181;29;96698;-61
2024/01/11 05:06:18;;;;;;;;;115.00;98.25;;;;;-2.85;100.00;99737.97;5905752;29;98624;-60
2024/01/11 05:09:21;;;;;;;;;113.40;92.80;;;;;-2.88;100.00;99738.19;5907941;29;96979;-60
2024/01/11 05:12:26;;;;;;;;;110.25;93.50;;;;;-2.93;100.00;99736.91;5903023;29;97135;-60
2024/01/11 05:15:29;;;;;;;;;110.25;95.25;;;;;-2.88;100.00;99734.75;5907734;29;96348;-59
2024/01/11 05:18:32;;;;;;;;;103.60;88.60;;;;;-2.93;100.00;99719.22;5901286;29;97000;-59
2024/01/11 05:21:37;;;;;;;;;103.25;91.00;;;;;-2.88;100.00;99706.53;5903927;29;96403;-59
2024/01/11 05:24:40;;;;;;;;;96.75;85.75;;;;;-2.88;100.00;99709.16;5906951;29;97124;-60
2024/01/11 05:27:45;;;;;;;;;98.20;84.40;;;;;-2.94;100.00;99682.44;5902917;29;98572;-60
2024/01/11 05:30:48;;;;;;;;;90.75;80.50;;;;;-2.85;100.00;99689.66;5921994;29;97090;-60
2024/01/11 05:33:51;;;;;;;;;94.60;77.60;;;;;-2.96;100.00;99684.34;5906756;29;96598;-64
2024/01/11 05:36:55;;;;;;;;;89.00;74.00;;;;;-2.90;100.00;99694.44;5906670;29;96417;-61
2024/01/11 05:40:01;;;;;;;;;92.75;80.50;;;;;-2.97;100.00;99675.59;5906421;29;97049;-61
2024/01/11 05:43:07;;;;;;;;;89.75;80.25;;;;;-2.76;100.00;99681.00;5904381;29;98514;-61
2024/01/11 05:46:10;;;;;;;;;86.00;77.00;;;;;-2.79;100.00;99683.91;5914558;29;96857;-61
2024/01/11 05:49:13;;;;;;;;;88.40;76.80;;;;;-2.73;100.00;99678.13;5905178;29;96458;-60
2024/01/11 05:52:16;;;;;;;;;97.00;81.60;;;;;-2.60;100.00;99685.97;5901196;29;97452;-60
2024/01/11 05:55:19;;;;;;;;;93.00;79.00;;;;;-2.52;100.00;99708.16;5888811;29;100641;-60
2024/01/11 05:58:24;;;;;;;;;95.20;81.80;;;;;-2.54;100.00;99698.69;5902922;29;96448;-60
2024/01/11 06:01:27;;;;;;;;;91.00;81.00;;;;;-2.43;100.00;99710.06;5901923;29;96448;-60
2024/01/11 06:04:32;;;;;;;;;89.00;76.00;;;;;-2.45;100.00;99693.53;5902851;29;98241;-61
2024/01/11 06:07:35;;;;;;;;;92.50;79.75;;;;;-2.59;100.00;99671.81;5887899;29;96777;-61
2024/01/11 06:10:40;;;;;;;;;95.00;79.00;;;;;-2.78;100.00;99678.50;5904214;29;99698;-60
2024/01/11 06:13:44;;;;;;;;;86.00;73.00;;;;;-2.78;100.00;99694.31;5913180;29;96651;-61
2024/01/11 06:16:48;;;;;;;;;80.20;69.20;;;;;-2.72;100.00;99698.28;5898116;29;97089;-61
2024/01/11 06:19:51;;;;;;;;;78.33;69.33;;;;;-2.56;100.00;99711.16;5901782;29;96538;-61
2024/01/11 06:22:54;;;;;;;;;89.20;72.60;;;;;-2.47;100.00;99715.72;5898104;29;96368;-60
2024/01/11 06:25:57;;;;;;;;;82.75;74.50;;;;;-2.35;100.00;99717.41;5895975;29;96744;-62
2024/01/11 06:29:03;;;;;;;;;88.50;73.75;;;;;-2.28;100.00;99702.75;5899799;29;96540;-61
2024/01/11 06:32:08;;;;;;;;;88.50;75.25;;;;;-2.22;100.00;99699.63;5894378;29;96678;-61
2024/01/11 06:35:12;;;;;;;;;91.00;78.60;;;;;-2.26;100.00;99693.75;5904739;29;97140;-61
2024/01/11 06:38:15;;;;;;;;;91.50;79.25;;;;;-2.63;100.00;99644.78;5902700;29;96554;-61
2024/01/11 06:41:18;;;;;;;;;97.00;82.20;;;;;-2.24;100.00;99685.69;5904701;29;96499;-65
2024/01/11 06:44:23;;;;;;;;;94.00;82.00;;;;;-2.77;100.00;99634.47;5910910;29;96872;-64
2024/01/11 06:47:26;;;;;;;;;99.40;85.20;;;;;-2.61;100.00;99658.72;5924990;29;96317;-63
2024/01/11 06:50:29;;;;;;;;;95.40;82.60;;;;;-2.67;100.00;99654.75;5921163;29;96693;-63
2024/01/11 06:53:33;;;;;;;;;101.00;88.00;;;;;-2.84;100.00;99639.41;5922581;29;96432;-63
2024/01/11 06:56:36;;;;;;;;;95.40;81.40;;;;;-2.92;100.00;99628.59;5920817;29;97260;-61
2024/01/11 06:59:41;;;;;;;;;95.60;80.00;;;;;-2.88;100.00;99598.34;5920305;29;96689;-63
2024/01/11 07:02:44;;;;;;;;;95.40;81.80;;;;;-2.90;100.00;99604.72;5921645;29;96905;-65
2024/01/11 07:05:48;;;;;;;;;78.60;69.20;;;;;-2.82;100.00;99608.44;5923745;29;96379;-64
2024/01/11 07:08:51;;;;;;;;;78.00;67.00;;;;;-2.65;100.00;99609.78;5922712;29;96610;-65
2024/01/11 07:11:54;;;;;;;;;77.00;66.20;;;;;-2.45;100.00;99606.41;5922241;29;96560;-65
2024/01/11 07:14:59;;;;;;;;;79.25;68.25;;;;;-2.30;100.00;99602.50;5922032;29;96278;-66
2024/01/11 07:18:02;;;;;;;;;79.25;68.00;;;;;-2.23;100.00;99585.22;5921648;29;96351;-65
2024/01/11 07:21:05;;;;;;;;;80.60;67.00;;;;;-2.03;100.00;99580.13;5921931;29;96249;-65
2024/01/11 07:24:09;;;;;;;;;74.00;61.00;;;;;-1.95;100.00;99575.88;5912436;29;96370;-65
2024/01/11 07:27:12;;;;;;;;;78.00;64.00;;;;;-1.77;100.00;99576.19;5919940;29;98571;-65
2024/01/11 07:30:18;;;;;;;;;75.20;61.80;;;;;-1.35;100.00;99593.75;5919953;29;96316;-65
2024/01/11 07:33:21;;;;;;;;;76.00;62.75;;;;;-0.38;100.00;99592.38;5921368;29;96320;-66
2024/01/11 07:36:25;;;;;;;;;77.75;67.25;;;;;1.24;100.00;99595.97;5919532;29;96435;-65
2024/01/11 07:39:30;;;;;;;;;76.50;64.50;;;;;2.92;97.76;99590.91;5920340;29;96775;-66
2024/01/11 07:42:33;;;;;;;;;83.40;72.60;;;;;4.53;88.14;99585.34;5921606;29;96346;-64
2024/01/11 07:45:38;;;;;;;;;76.60;63.60;;;;;5.84;79.59;99594.78;5921250;29;96309;-66
2024/01/11 07:48:42;;;;;;;;;74.00;59.00;;;;;6.96;74.97;99598.56;5914265;29;96476;-65
2024/01/11 07:51:45;;;;;;;;;72.40;57.00;;;;;7.97;68.57;99589.06;5914229;29;96314;-63
2024/01/11 07:54:48;;;;;;;;;74.60;61.00;;;;;8.60;63.09;99565.00;5904248;29;96890;-65
2024/01/11 07:57:51;;;;;;;;;71.75;55.75;;;;;9.64;60.94;99581.28;5894817;29;97498;-64
2024/01/11 08:00:56;;;;;;;;;72.40;59.40;;;;;10.30;56.37;99579.75;5900905;29;97122;-63
2024/01/11 08:04:01;;;;;;;;;76.00;62.50;;;;;11.79;51.61;99579.13;5902139;29;96396;-64
2024/01/11 08:07:05;;;;;;;;;75.80;63.00;;;;;13.57;49.31;99570.69;5902628;29;98838;-65
2024/01/11 08:10:09;;;;;;;;;75.00;62.80;;;;;13.81;44.58;99548.09;5904008;29;96407;-65
2024/01/11 08:13:13;;;;;;;;;75.00;63.20;;;;;12.96;46.17;99562.44;5900753;29;97026;-65
2024/01/11 08:16:18;;;;;;;;;74.50;62.00;;;;;11.89;48.27;99570.56;5904495;29;97186;-64
2024/01/11 08:19:21;;;;;;;;;71.75;59.00;;;;;11.97;49.42;99571.16;5907307;29;96030;-64
2024/01/11 08:22:25;;;;;;;;;75.60;62.20;;;;;12.72;46.49;99560.56;5906341;29;96469;-64
2024/01/11 08:25:30;;;;;;;;;72.00;57.00;;;;;12.16;47.24;99566.75;5907680;29;96308;-66
2024/01/11 08:28:33;;;;;;;;;71.60;57.60;;;;;11.11;49.92;99567.81;5906557;29;99184;-65
2024/01/11 08:31:37;;;;;;;;;72.60;60.20;;;;;10.70;51.42;99554.50;5908089;29;96412;-65
2024/01/11 08:34:42;;;;;;;;;70.00;57.40;;;;;10.04;52.58;99542.75;5907945;29;96415;-64
2024/01/11 08:37:45;;;;;;;;;72.00;56.75;;;;;9.11;55.04;99527.97;5907165;29;96552;-64
2024/01/11 08:40:49;;;;;;;;;72.60;56.60;;;;;8.29;57.58;99559.09;5907499;29;96959;-64
2024/01/11 08:43:53;;;;;;;;;69.50;53.00;;;;;7.76;60.15;99552.28;5907382;29;96282;-64
2024/01/11 08:46:59;;;;;;;;;67.50;52.00;;;;;7.07;62.86;99573.16;5906295;29;97057;-64
2024/01/11 08:50:05;;;;;;;;;71.00;56.00;;;;;6.83;64.69;99571.56;5905572;29;96729;-63
2024/01/11 08:53:09;;;;;;;;;69.60;54.60;;;;;6.73;66.23;99570.13;5905255;29;96277;-64
2024/01/11 08:56:12;;;;;;;;;72.40;57.00;;;;;6.89;66.51;99567.31;5905893;29;96994;-63
2024/01/11 08:59:15;;;;;;;;;70.00;53.00;;;;;6.88;65.70;99563.81;5890448;29;98492;-64
2024/01/11 09:02:20;;;;;;;;;73.20;60.00;;;;;6.74;66.80;99561.91;5906183;29;98433;-61
2024/01/11 09:05:27;;;;;;;;;70.00;53.00;;;;;6.46;67.73;99555.44;5905889;29;96301;-61
2024/01/11 09:08:31;;;;;;;;;75.00;61.00;;;;;5.95;69.34;99544.41;5904191;29;97139;-61
2024/01/11 09:11:34;;;;;;;;;72.50;55.00;;;;;5.65;70.67;99546.03;5902641;29;97024;-61
2024/01/11 09:14:37;;;;;;;;;70.00;55.00;;;;;5.40;71.88;99552.47;5903957;29;96437;-61
2024/01/11 09:17:42;;;;;;;;;69.00;56.80;;;;;5.31;72.69;99560.69;5903845;29;96679;-61
2024/01/11 09:20:45;;;;;;;;;70.50;55.00;;;;;5.20;74.35;99569.91;5904180;29;96906;-61
2024/01/11 09:23:48;;;;;;;;;70.00;52.20;;;;;4.98;76.47;99571.47;5906740;29;96326;-61
2024/01/11 09:26:51;;;;;;;;;69.80;53.60;;;;;4.84;77.03;99569.47;5906453;29;96783;-61
2024/01/11 09:29:54;;;;;;;;;69.00;53.40;;;;;4.86;77.33;99561.28;5906866;29;96545;-61
2024/01/11 09:33:00;;;;;;;;;67.00;52.00;;;;;4.76;77.46;99558.78;5906851;29;96359;-60
2024/01/11 09:36:05;;;;;;;;;65.50;50.75;;;;;4.59;76.95;99549.97;5906901;29;96528;-62
2024/01/11 09:39:08;;;;;;;;;67.00;51.00;;;;;4.42;77.57;99553.63;5906754;29;96326;-60
2024/01/11 09:42:11;;;;;;;;;68.00;52.00;;;;;4.26;79.24;99546.44;5890250;29;96658;-60
2024/01/11 09:45:16;;;;;;;;;65.40;51.60;;;;;3.99;80.66;99513.88;5906450;29;96427;-61
2024/01/11 09:48:21;;;;;;;;;67.00;52.00;;;;;3.99;82.28;99508.56;5906981;29;96249;-60
2024/01/11 09:51:27;;;;;;;;;69.75;53.50;;;;;3.99;82.86;99527.22;5905348;29;96478;-62
2024/01/11 09:54:30;;;;;;;;;70.40;53.80;;;;;4.16;81.60;99524.41;5906228;29;96860;-61
2024/01/11 09:57:36;;;;;;;;;67.40;52.00;;;;;4.27;80.82;99520.59;5906340;29;96327;-61
2024/01/11 10:00:40;;;;;;;;;64.00;50.00;;;;;4.27;80.04;99504.56;5904989;29;97576;-62
2024/01/11 10:03:46;;;;;;;;;64.60;50.00;;;;;4.52;80.83;99506.25;5904456;29;97003;-61
2024/01/11 10:06:50;;;;;;;;;63.60;49.00;;;;;4.70;79.11;99508.72;5904683;29;96396;-61
2024/01/11 10:09:54;;;;;;;;;60.00;46.00;;;;;4.90;77.87;99495.81;5906258;29;96297;-61
2024/01/11 10:12:57;;;;;;;;;56.80;45.20;;;;;5.15;76.28;99503.59;5906671;29;96466;-64
2024/01/11 10:16:09;;;;;;;;;53.40;43.40;;;;;5.64;74.71;99492.69;5906511;29;96342;-64
2024/01/11 10:19:16;;;;;;;;;51.80;41.40;;;;;5.89;72.97;99491.59;5906456;29;96340;-63
2024/01/11 10:22:20;;;;;;;;;51.00;40.00;;;;;6.19;71.47;99483.69;5906519;29;96599;-64
2024/01/11 10:25:28;;;;;;;;;46.60;35.60;;;;;5.97;71.17;99472.78;5905444;29;97048;-63
2024/01/11 10:28:32;;;;;;;;;49.80;40.20;;;;;5.78;71.62;99459.00;5906050;29;96289;-64
2024/01/11 10:31:35;;;;;;;;;47.75;38.00;;;;;5.78;71.95;99467.88;5906162;29;97018;-63
2024/01/11 10:34:41;;;;;;;;;48.60;38.00;;;;;5.56;73.25;99476.72;5906499;29;96272;-64
2024/01/11 10:37:44;;;;;;;;;48.00;39.00;;;;;5.46;72.82;99462.72;5905022;29;96456;-63
2024/01/11 10:40:48;;;;;;;;;45.25;38.25;;;;;5.43;73.80;99449.69;5905052;29;96149;-63
2024/01/11 10:43:52;;;;;;;;;43.80;35.00;;;;;5.40;74.61;99455.38;5881919;29;98615;-64
2024/01/11 10:46:57;;;;;;;;;47.50;37.75;;;;;5.38;74.70;99452.03;5883336;29;96512;-64
2024/01/11 10:50:04;;;;;;;;;40.40;33.40;;;;;5.40;75.73;99464.25;5883390;29;97019;-64
2024/01/11 10:53:17;;;;;;;;;36.40;32.00;;;;;5.41;75.86;99441.00;5883621;29;96326;-63
2024/01/11 10:56:21;;;;;;;;;37.33;32.00;;;;;5.44;74.81;99433.47;5883625;29;96522;-64
2024/01/11 10:59:26;;;;;;;;;35.75;29.25;;;;;5.41;73.43;99436.50;5897482;29;96302;-63
2024/01/11 11:02:30;;;;;;;;;28.60;26.00;;;;;5.56;73.41;99433.91;5882431;29;96283;-63
2024/01/11 11:05:36;;;;;;;;;25.75;21.00;;;;;5.63;71.32;99430.34;5882767;29;96341;-64
2024/01/11 11:08:40;;;;;;;;;29.00;26.00;;;;;5.69;70.51;99415.44;5883187;29;96246;-63
2024/01/11 11:11:46;;;;;;;;;23.40;21.00;;;;;5.84;70.27;99418.16;5883291;29;97041;-64
2024/01/11 11:14:50;;;;;;;;;27.60;24.60;;;;;5.86;69.91;99411.63;5882088;29;96888;-64
2024/01/11 11:17:54;;;;;;;;;21.80;19.80;;;;;5.88;70.55;99406.97;5882978;29;96377;-63
2024/01/11 11:20:59;;;;;;;;;24.80;22.00;;;;;5.85;69.67;99403.78;5897232;29;96450;-63
2024/01/11 11:24:03;;;;;;;;;21.00;20.00;;;;;5.95;70.76;99405.25;5886230;29;96538;-59
2024/01/11 11:27:07;;;;;;;;;23.25;21.25;;;;;5.94;69.83;99382.16;5904968;29;96346;-58
2024/01/11 11:30:11;;;;;;;;;25.00;23.00;;;;;5.89;68.67;99387.22;5891611;29;96194;-58
2024/01/11 11:33:18;;;;;;;;;22.75;21.00;;;;;5.94;69.83;99374.13;5918362;29;96908;-59
2024/01/11 11:36:29;;;;;;;;;19.80;18.60;;;;;6.01;70.00;99371.59;5927474;29;96341;-59
2024/01/11 11:39:32;;;;;;;;;22.00;20.00;;;;;5.92;70.34;99368.13;5914049;29;96343;-59
2024/01/11 11:42:36;;;;;;;;;20.00;17.20;;;;;5.88;70.20;99361.47;5912823;29;96307;-59
2024/01/11 11:45:41;;;;;;;;;23.00;21.40;;;;;5.84;70.48;99364.66;5912698;29;96301;-58
2024/01/11 11:48:52;;;;;;;;;25.25;22.25;;;;;5.80;70.61;99363.34;5913431;29;96173;-58
2024/01/11 11:51:58;;;;;;;;;23.00;20.00;;;;;5.75;71.25;99355.88;5917172;29;96251;-59
2024/01/11 11:55:02;;;;;;;;;29.25;22.25;;;;;5.73;70.75;99352.53;5916365;29;96832;-59
2024/01/11 11:58:05;;;;;;;;;21.00;18.80;;;;;5.68;70.61;99363.75;5916969;29;96337;-59
2024/01/11 12:01:08;;;;;;;;;21.20;19.40;;;;;5.67;70.80;99351.41;5916456;29;99486;-59
2024/01/11 12:04:14;;;;;;;;;25.00;23.00;;;;;5.70;70.96;99339.53;5916448;29;96719;-58
2024/01/11 12:07:20;;;;;;;;;26.00;23.60;;;;;5.73;70.97;99333.78;5917033;29;96265;-58
2024/01/11 12:10:23;;;;;;;;;29.25;25.00;;;;;5.77;71.71;99335.09;5917941;29;96158;-58
2024/01/11 12:13:27;;;;;;;;;27.40;24.00;;;;;5.73;71.68;99331.13;5917452;29;96280;-59
2024/01/11 12:16:30;;;;;;;;;29.00;26.60;;;;;5.63;70.97;99339.41;5932420;29;96285;-59
2024/01/11 12:19:33;;;;;;;;;29.25;24.00;;;;;5.67;73.06;99326.47;5918482;29;96282;-58
2024/01/11 12:22:38;;;;;;;;;25.20;24.20;;;;;5.73;73.47;99315.06;5918501;29;96967;-60
2024/01/11 12:25:41;;;;;;;;;27.00;25.75;;;;;5.77;72.23;99304.84;5917977;29;96244;-58
2024/01/11 12:28:45;;;;;;;;;28.00;24.40;;;;;5.69;71.33;99305.75;5918801;29;96545;-58
2024/01/11 12:31:49;;;;;;;;;26.20;23.00;;;;;5.66;71.82;99316.81;5918047;29;96325;-58
2024/01/11 12:34:53;;;;;;;;;28.40;23.40;;;;;5.42;76.67;99319.69;5910681;29;96257;-63
2024/01/11 12:38:00;;;;;;;;;29.00;24.00;;;;;5.30;74.99;99307.72;5907993;29;96393;-63
2024/01/11 12:41:04;;;;;;;;;30.00;25.00;;;;;5.19;75.16;99291.09;5908204;29;96373;-64
2024/01/11 12:44:07;;;;;;;;;26.00;24.00;;;;;5.33;74.93;99291.31;5907917;29;96267;-64
2024/01/11 12:47:11;;;;;;;;;27.50;24.50;;;;;5.32;74.33;99277.16;5908445;29;97750;-63
2024/01/11 12:50:14;;;;;;;;;26.00;23.00;;;;;5.32;73.14;99271.78;5920891;29;96360;-63
2024/01/11 12:53:18;;;;;;;;;24.00;22.20;;;;;5.23;72.67;99264.81;5930456;29;96445;-64
2024/01/11 12:56:22;;;;;;;;;27.00;23.20;;;;;5.34;73.13;99266.25;5931396;29;96444;-64
2024/01/11 12:59:27;;;;;;;;;26.00;24.00;;;;;5.37;72.87;99250.72;5930874;29;96222;-63
2024/01/11 13:02:31;;;;;;;;;25.80;21.80;;;;;5.53;72.00;99247.03;5928627;29;97337;-63
2024/01/11 13:05:36;;;;;;;;;26.00;23.40;;;;;5.61;71.62;99258.53;5930848;29;96954;-64
2024/01/11 13:08:41;;;;;;;;;25.60;22.00;;;;;5.66;71.41;99248.09;5929245;29;98451;-64
2024/01/11 13:11:44;;;;;;;;;22.00;21.40;;;;;5.70;71.13;99267.28;5930386;29;96254;-65
2024/01/11 13:14:48;;;;;;;;;23.80;21.80;;;;;5.75;71.08;99248.84;5928910;29;98718;-64
2024/01/11 13:17:53;;;;;;;;;25.60;22.00;;;;;5.70;70.54;99253.91;5944491;29;96206;-64
2024/01/11 13:20:56;;;;;;;;;25.40;22.00;;;;;5.67;71.40;99240.88;5930038;29;96228;-63
2024/01/11 13:24:01;;;;;;;;;23.40;22.00;;;;;5.59;72.20;99240.97;5929702;29;96306;-63
2024/01/11 13:27:04;;;;;;;;;26.25;23.25;;;;;5.68;72.56;99240.72;5928892;29;96343;-64
2024/01/11 13:30:08;;;;;;;;;29.60;25.60;;;;;5.72;72.74;99243.84;5929856;29;96256;-63
2024/01/11 13:33:13;;;;;;;;;27.50;24.75;;;;;5.73;72.59;99239.34;5930134;29;96204;-64
2024/01/11 13:36:16;;;;;;;;;29.40;26.00;;;;;5.65;73.63;99230.38;5928816;29;96720;-64
2024/01/11 13:39:20;;;;;;;;;34.20;29.00;;;;;5.61;73.40;99228.25;5928305;29;96631;-64
2024/01/11 13:42:23;;;;;;;;;29.00;26.60;;;;;5.61;73.56;99228.25;5927313;29;96302;-63
2024/01/11 13:45:27;;;;;;;;;29.25;27.00;;;;;5.55;74.78;99237.00;5926928;29;98603;-64
2024/01/11 13:48:31;;;;;;;;;37.00;32.00;;;;;5.48;75.42;99239.56;5928182;29;96213;-64
2024/01/11 13:51:34;;;;;;;;;35.40;30.00;;;;;5.45;76.47;99239.94;5926226;29;99012;-64
2024/01/11 13:54:57;;;;;;;;;33.60;31.40;;;;;5.30;77.31;99262.28;5927656;29;96113;-64
2024/01/11 13:58:00;;;;;;;;;36.50;30.50;;;;;5.18;80.77;99267.22;5923034;29;96814;-63
2024/01/11 14:01:04;;;;;;;;;39.60;33.60;;;;;5.06;81.42;99265.97;5930369;29;96864;-64